Time;durP1;ratioP1;P1;durP2;ratioP2;P2;SDS_P1;SDS_P2;PMS_P1;PMS_P2;Temp;Humidity;BMP_temperature;BMP_pressure;BME280_temperature;BME280_humidity;BME280_pressure;Samples;Min_cycle;Max_cycle;Signal;HPM_P1;HPM_P2
2023/08/17 10:18:34;;;;;;;21.40;19.53;;;;;;;;;;5019087;28;20975;-90
2023/08/17 10:21:23;;;;;;;20.90;19.27;;;;;;;;;;5035693;28;20494;-90
2023/08/17 10:23:52;;;;;;;21.40;19.70;;;;;;;;;;5011990;28;20586;-94
2023/08/17 10:26:19;;;;;;;21.57;19.87;;;;;;;;;;5033099;28;20431;-94
2023/08/17 10:28:45;;;;;;;23.07;21.07;;;;;;;;;;5017565;28;20723;-93
2023/08/17 10:31:13;;;;;;;24.20;22.20;;;;;;;;;;5019493;28;20436;-96
2023/08/17 10:33:42;;;;;;;23.20;21.10;;;;;;;;;;5051263;22;20552;-78
2023/08/17 10:36:08;;;;;;;20.80;19.30;;;;;;;;;;5010340;28;20517;-76
2023/08/17 10:38:34;;;;;;;22.53;20.57;;;;;;;;;;5021773;23;20488;-90
2023/08/17 10:41:09;;;;;;;21.47;19.70;;;;;;;;;;4995282;28;20490;-94
2023/08/17 10:43:36;;;;;;;21.90;19.90;;;;;;;;;;5018903;28;20819;-92
2023/08/17 10:46:16;;;;;;;20.30;18.60;;;;;;;;;;5020374;28;20523;-93
2023/08/17 10:48:44;;;;;;;21.57;19.87;;;;;;;;;;5003130;28;20964;-93
2023/08/17 10:51:13;;;;;;;20.87;19.00;;;;;;;;;;4996728;28;20861;-90
2023/08/17 10:53:43;;;;;;;22.43;20.37;;;;;;;;;;5002868;28;20878;-92
2023/08/17 10:56:11;;;;;;;23.27;21.27;;;;;;;;;;5007837;28;20431;-93
2023/08/17 11:01:41;;;;;;;24.40;22.20;;;;;;;;;;5048349;22;20478;-84
2023/08/17 11:04:18;;;;;;;22.57;20.43;;;;;;;;;;5036706;28;20425;-84
2023/08/17 11:06:46;;;;;;;21.53;19.43;;;;;;;;;;5037155;28;21043;-83
2023/08/17 11:09:12;;;;;;;22.70;20.53;;;;;;;;;;5046640;28;20513;-83
2023/08/17 11:11:38;;;;;;;21.03;18.97;;;;;;;;;;5033140;28;20448;-84
2023/08/17 11:14:05;;;;;;;22.50;20.30;;;;;;;;;;5044180;28;20552;-85
2023/08/17 11:16:31;;;;;;;19.63;17.97;;;;;;;;;;5043193;28;20437;-84
2023/08/17 11:18:59;;;;;;;20.10;18.60;;;;;;;;;;5041260;28;20794;-83
2023/08/17 11:21:26;;;;;;;20.60;18.90;;;;;;;;;;5033029;28;20453;-83
2023/08/17 11:23:57;;;;;;;20.30;18.70;;;;;;;;;;5041459;28;20465;-84
2023/08/17 11:26:25;;;;;;;22.57;20.87;;;;;;;;;;5044448;28;20425;-85
2023/08/17 11:28:52;;;;;;;21.40;19.53;;;;;;;;;;5045064;28;20433;-84
2023/08/17 11:31:19;;;;;;;22.90;21.10;;;;;;;;;;5034311;28;20437;-84
2023/08/17 11:33:46;;;;;;;22.23;20.30;;;;;;;;;;5018972;28;20940;-83
2023/08/17 11:36:14;;;;;;;22.20;20.60;;;;;;;;;;5038548;28;20457;-82
2023/08/17 11:38:41;;;;;;;23.80;21.70;;;;;;;;;;5047324;28;20417;-82
2023/08/17 11:41:09;;;;;;;18.23;16.97;;;;;;;;;;5032694;28;20690;-86
2023/08/17 11:43:37;;;;;;;17.10;15.90;;;;;;;;;;5048634;28;20456;-86
2023/08/17 11:46:05;;;;;;;19.73;17.87;;;;;;;;;;5037966;28;20446;-84
2023/08/17 11:48:33;;;;;;;19.40;18.00;;;;;;;;;;5046476;28;20468;-85
2023/08/17 11:51:02;;;;;;;17.30;16.00;;;;;;;;;;5051578;28;20516;-83
2023/08/17 11:53:34;;;;;;;16.80;15.53;;;;;;;;;;5039890;28;20469;-84
2023/08/17 11:56:02;;;;;;;16.60;15.47;;;;;;;;;;5040278;28;20473;-83
2023/08/17 11:58:46;;;;;;;18.20;16.70;;;;;;;;;;5048711;28;20441;-91
2023/08/17 12:01:15;;;;;;;18.20;16.77;;;;;;;;;;5052393;28;20450;-88
2023/08/17 12:03:42;;;;;;;17.90;16.60;;;;;;;;;;5062758;28;20420;-85
2023/08/17 12:06:09;;;;;;;15.97;14.77;;;;;;;;;;5046441;28;21196;-80
2023/08/17 12:08:37;;;;;;;16.83;15.53;;;;;;;;;;5038153;28;20421;-80
2023/08/17 12:11:08;;;;;;;17.63;16.30;;;;;;;;;;5032594;28;20479;-81
2023/08/17 12:13:34;;;;;;;14.13;13.23;;;;;;;;;;5042648;28;20537;-80
2023/08/17 12:16:01;;;;;;;14.43;13.23;;;;;;;;;;5039190;28;20818;-80
2023/08/17 12:18:29;;;;;;;13.43;12.17;;;;;;;;;;5045189;28;20421;-79
2023/08/17 12:20:56;;;;;;;11.00;10.40;;;;;;;;;;5032188;28;20434;-81
2023/08/17 12:23:22;;;;;;;12.60;11.90;;;;;;;;;;5036981;28;20406;-80
2023/08/17 12:25:56;;;;;;;13.17;12.43;;;;;;;;;;5040779;28;20852;-81
2023/08/17 12:28:25;;;;;;;13.47;12.27;;;;;;;;;;5044183;28;20425;-81
2023/08/17 12:31:01;;;;;;;13.50;12.43;;;;;;;;;;5026740;28;20528;-81
2023/08/17 12:33:28;;;;;;;11.97;11.07;;;;;;;;;;5037271;28;20449;-80
2023/08/17 12:35:56;;;;;;;9.30;8.70;;;;;;;;;;5031125;28;20489;-80
2023/08/17 12:38:24;;;;;;;13.20;9.10;;;;;;;;;;5042722;28;20426;-81
2023/08/17 12:40:53;;;;;;;9.60;9.10;;;;;;;;;;5029698;28;22016;-81
2023/08/17 12:43:19;;;;;;;9.10;8.33;;;;;;;;;;5035522;28;20940;-81
2023/08/17 12:45:47;;;;;;;8.43;7.93;;;;;;;;;;5040236;28;20426;-79
2023/08/17 12:48:14;;;;;;;8.57;8.03;;;;;;;;;;5040072;28;20414;-81
2023/08/17 12:50:41;;;;;;;10.03;9.43;;;;;;;;;;5032546;28;20418;-80
2023/08/17 12:53:08;;;;;;;11.40;10.57;;;;;;;;;;5037093;28;20446;-81
2023/08/17 12:55:35;;;;;;;20.00;18.33;;;;;;;;;;5042227;28;20425;-79
2023/08/17 12:58:02;;;;;;;21.87;20.17;;;;;;;;;;5042229;28;20512;-79
2023/08/17 13:00:29;;;;;;;25.47;23.10;;;;;;;;;;5043016;28;20538;-80
2023/08/17 13:02:56;;;;;;;26.37;24.00;;;;;;;;;;5033693;28;21246;-79
2023/08/17 13:05:22;;;;;;;25.63;23.40;;;;;;;;;;5038990;28;20983;-79
2023/08/17 13:07:49;;;;;;;24.80;22.30;;;;;;;;;;5034776;28;20947;-79
2023/08/17 13:10:15;;;;;;;24.07;22.10;;;;;;;;;;5037374;28;20598;-79
2023/08/17 13:12:42;;;;;;;26.30;23.90;;;;;;;;;;5038360;22;20475;-85
2023/08/17 13:15:09;;;;;;;23.20;21.20;;;;;;;;;;5059783;28;20476;-86
2023/08/17 13:17:36;;;;;;;23.17;20.93;;;;;;;;;;5041102;28;20549;-83
2023/08/17 13:20:03;;;;;;;23.77;21.67;;;;;;;;;;5058750;28;20432;-84
2023/08/17 13:22:29;;;;;;;24.47;22.20;;;;;;;;;;5059799;28;20934;-85
2023/08/17 13:24:56;;;;;;;24.50;21.80;;;;;;;;;;5059957;28;20446;-85
2023/08/17 13:27:22;;;;;;;25.87;23.57;;;;;;;;;;5056390;28;20800;-86
2023/08/17 13:29:50;;;;;;;26.00;23.80;;;;;;;;;;5065192;28;20429;-83
2023/08/17 13:32:16;;;;;;;26.07;23.77;;;;;;;;;;5043890;28;20867;-82
2023/08/17 13:34:42;;;;;;;26.20;23.67;;;;;;;;;;5055842;28;20582;-85
2023/08/17 13:37:09;;;;;;;27.50;25.00;;;;;;;;;;5056272;28;20456;-85
2023/08/17 13:39:35;;;;;;;29.10;26.30;;;;;;;;;;5034708;28;20447;-83
2023/08/17 13:42:01;;;;;;;28.73;25.93;;;;;;;;;;5033207;28;20446;-85
2023/08/17 13:44:27;;;;;;;27.00;24.30;;;;;;;;;;5039717;28;20441;-84
2023/08/17 13:46:54;;;;;;;27.67;24.97;;;;;;;;;;5030720;28;21208;-84
2023/08/17 13:49:20;;;;;;;26.63;24.33;;;;;;;;;;5030627;28;20866;-83
2023/08/17 13:51:47;;;;;;;30.20;24.43;;;;;;;;;;5041019;28;20435;-84
2023/08/17 13:54:13;;;;;;;26.03;23.83;;;;;;;;;;5042744;28;20556;-83
2023/08/17 13:56:39;;;;;;;26.33;24.00;;;;;;;;;;5040107;28;20537;-83
2023/08/17 13:59:06;;;;;;;30.70;27.67;;;;;;;;;;5043621;28;20425;-82
2023/08/17 14:01:32;;;;;;;29.10;26.30;;;;;;;;;;5037126;28;20433;-85
2023/08/17 14:03:59;;;;;;;27.40;24.80;;;;;;;;;;5038745;28;20924;-84
2023/08/17 14:06:25;;;;;;;26.60;24.30;;;;;;;;;;5041515;28;20426;-84
2023/08/17 14:08:51;;;;;;;27.80;24.93;;;;;;;;;;5031510;28;20434;-86
2023/08/17 14:11:17;;;;;;;26.40;23.50;;;;;;;;;;5028708;28;20435;-84
2023/08/17 14:13:44;;;;;;;24.87;22.20;;;;;;;;;;5034795;28;21094;-86
2023/08/17 14:16:10;;;;;;;25.77;23.57;;;;;;;;;;5039237;28;20485;-85
2023/08/17 14:18:36;;;;;;;24.60;22.10;;;;;;;;;;5043744;28;20434;-84
2023/08/17 14:21:03;;;;;;;26.23;23.93;;;;;;;;;;5032860;28;20437;-86
2023/08/17 14:23:29;;;;;;;25.83;23.47;;;;;;;;;;5044226;28;20434;-86
2023/08/17 14:25:55;;;;;;;23.83;21.87;;;;;;;;;;5037434;28;20414;-86
2023/08/17 14:28:22;;;;;;;24.33;22.13;;;;;;;;;;5036522;28;20426;-83
2023/08/17 14:30:48;;;;;;;22.57;20.60;;;;;;;;;;5035788;28;20425;-83
2023/08/17 14:33:15;;;;;;;23.80;21.57;;;;;;;;;;5032940;28;20524;-84
2023/08/17 14:35:42;;;;;;;23.70;21.50;;;;;;;;;;5044179;28;20436;-83
2023/08/17 14:38:12;;;;;;;22.40;20.40;;;;;;;;;;5042455;28;20776;-82
2023/08/17 14:40:39;;;;;;;21.47;19.27;;;;;;;;;;5032226;28;20518;-85
2023/08/17 14:43:05;;;;;;;18.97;17.43;;;;;;;;;;5046962;28;20437;-82
2023/08/17 14:45:31;;;;;;;22.10;19.90;;;;;;;;;;5042863;28;21008;-83
2023/08/17 14:47:58;;;;;;;20.93;19.27;;;;;;;;;;5030929;28;20430;-82
2023/08/17 14:50:25;;;;;;;21.47;19.40;;;;;;;;;;5037973;28;20414;-83
2023/08/17 14:52:52;;;;;;;20.43;18.93;;;;;;;;;;5029305;28;20435;-84
2023/08/17 14:55:18;;;;;;;20.47;18.87;;;;;;;;;;5041567;28;20437;-83
2023/08/17 14:57:45;;;;;;;21.93;20.13;;;;;;;;;;5034392;28;20429;-84
2023/08/17 15:00:11;;;;;;;20.40;18.60;;;;;;;;;;5038054;28;20492;-90
2023/08/17 15:02:37;;;;;;;19.80;17.17;;;;;;;;;;5060864;28;20503;-83
2023/08/17 15:05:04;;;;;;;19.57;17.97;;;;;;;;;;5040971;28;20437;-83
2023/08/17 15:07:31;;;;;;;18.10;16.40;;;;;;;;;;5023462;28;20422;-84
2023/08/17 15:09:57;;;;;;;18.20;16.87;;;;;;;;;;5044403;28;20966;-84
2023/08/17 15:12:24;;;;;;;22.13;20.50;;;;;;;;;;5042397;28;20441;-81
2023/08/17 15:14:50;;;;;;;22.87;20.97;;;;;;;;;;5025365;28;20813;-83
2023/08/17 15:17:16;;;;;;;22.17;20.37;;;;;;;;;;5033597;28;20441;-84
2023/08/17 15:19:42;;;;;;;21.73;19.83;;;;;;;;;;5047976;28;20434;-86
2023/08/17 15:22:09;;;;;;;22.43;20.73;;;;;;;;;;5049677;28;20441;-86
2023/08/17 15:24:35;;;;;;;22.70;20.70;;;;;;;;;;5052338;28;20701;-83
2023/08/17 15:27:02;;;;;;;26.47;23.60;;;;;;;;;;5048442;28;20701;-86
2023/08/17 15:29:28;;;;;;;22.40;20.40;;;;;;;;;;5026346;28;20827;-82
2023/08/17 15:31:54;;;;;;;23.70;21.80;;;;;;;;;;5059332;28;20437;-86
2023/08/17 15:34:20;;;;;;;25.30;22.77;;;;;;;;;;5040868;28;20468;-86
2023/08/17 15:36:47;;;;;;;22.07;20.27;;;;;;;;;;5042692;28;20454;-87
2023/08/17 15:39:13;;;;;;;22.70;20.70;;;;;;;;;;5058427;28;20889;-86
2023/08/17 15:41:39;;;;;;;21.80;19.97;;;;;;;;;;5061968;28;20456;-89
2023/08/17 15:44:05;;;;;;;20.90;19.33;;;;;;;;;;5042334;28;20584;-86
2023/08/17 15:46:31;;;;;;;21.80;20.07;;;;;;;;;;5056775;28;20506;-89
2023/08/17 15:48:58;;;;;;;21.53;19.73;;;;;;;;;;5058395;28;20464;-84
2023/08/17 15:51:27;;;;;;;24.13;21.93;;;;;;;;;;5059618;28;20429;-87
2023/08/17 15:53:54;;;;;;;25.50;22.27;;;;;;;;;;5057227;28;20468;-82
2023/08/17 15:56:20;;;;;;;24.80;22.43;;;;;;;;;;5040148;28;20480;-84
2023/08/17 15:58:46;;;;;;;24.63;22.13;;;;;;;;;;5047832;28;20449;-82
2023/08/17 16:01:13;;;;;;;24.43;22.33;;;;;;;;;;5032461;28;20445;-80
2023/08/17 16:03:42;;;;;;;23.87;21.63;;;;;;;;;;5031674;28;20463;-80
2023/08/17 16:06:08;;;;;;;23.57;21.13;;;;;;;;;;5041551;28;20466;-83
2023/08/17 16:08:34;;;;;;;22.63;20.73;;;;;;;;;;5039483;28;20430;-82
2023/08/17 16:11:00;;;;;;;21.47;19.80;;;;;;;;;;5058092;28;20465;-82
2023/08/17 16:13:29;;;;;;;21.23;19.53;;;;;;;;;;5044183;28;20485;-82
2023/08/17 16:15:55;;;;;;;21.93;20.20;;;;;;;;;;5021476;28;20447;-82
2023/08/17 16:18:21;;;;;;;23.43;21.40;;;;;;;;;;5039693;28;20446;-85
2023/08/17 16:20:47;;;;;;;24.30;22.17;;;;;;;;;;5038540;28;20433;-85
2023/08/17 16:23:14;;;;;;;24.23;22.00;;;;;;;;;;5044058;28;20430;-84
2023/08/17 16:25:39;;;;;;;24.20;22.10;;;;;;;;;;5039357;28;20493;-85
2023/08/17 16:28:06;;;;;;;21.73;19.63;;;;;;;;;;5036290;28;20439;-82
2023/08/17 16:30:34;;;;;;;24.03;21.77;;;;;;;;;;5025518;28;20477;-83
2023/08/17 16:33:00;;;;;;;22.10;19.90;;;;;;;;;;5024281;28;20802;-83
2023/08/17 16:35:25;;;;;;;22.73;20.47;;;;;;;;;;5030550;28;20465;-84
2023/08/17 16:37:51;;;;;;;23.00;20.83;;;;;;;;;;5024972;28;20910;-84
2023/08/17 16:40:18;;;;;;;20.90;19.00;;;;;;;;;;5019314;28;20425;-86
2023/08/17 16:42:45;;;;;;;19.23;17.60;;;;;;;;;;5011812;28;20466;-83
2023/08/17 16:45:11;;;;;;;18.83;17.20;;;;;;;;;;5016437;28;20499;-86
2023/08/17 16:47:39;;;;;;;20.33;18.50;;;;;;;;;;5020100;28;20444;-85
2023/08/17 16:50:06;;;;;;;21.30;19.33;;;;;;;;;;5027740;28;20435;-84
2023/08/17 16:52:32;;;;;;;19.30;17.90;;;;;;;;;;5019140;28;20427;-82
2023/08/17 16:54:57;;;;;;;19.03;17.40;;;;;;;;;;5022969;28;20535;-81
2023/08/17 16:57:24;;;;;;;17.93;16.60;;;;;;;;;;5031005;28;20439;-90
2023/08/17 16:59:50;;;;;;;19.03;17.37;;;;;;;;;;5042873;28;20510;-87
2023/08/17 17:02:16;;;;;;;18.03;16.43;;;;;;;;;;5037541;28;20435;-87
2023/08/17 17:04:45;;;;;;;16.30;14.90;;;;;;;;;;5035318;28;20448;-87
2023/08/17 17:07:11;;;;;;;17.20;15.60;;;;;;;;;;5035767;28;20439;-83
2023/08/17 17:09:39;;;;;;;18.30;16.57;;;;;;;;;;5037388;28;20487;-88
2023/08/17 17:12:06;;;;;;;15.67;14.43;;;;;;;;;;5032635;28;20435;-87
2023/08/17 17:14:35;;;;;;;17.10;15.80;;;;;;;;;;5057812;28;20522;-87
2023/08/17 17:17:01;;;;;;;15.10;13.90;;;;;;;;;;5054836;28;20421;-86
2023/08/17 17:19:27;;;;;;;15.43;14.33;;;;;;;;;;5048267;28;20904;-89
2023/08/17 17:21:56;;;;;;;15.80;14.50;;;;;;;;;;5038237;28;20460;-84
2023/08/17 17:24:25;;;;;;;17.20;15.90;;;;;;;;;;5046818;28;20451;-90
2023/08/17 17:26:51;;;;;;;17.23;15.57;;;;;;;;;;5039016;28;20449;-88
2023/08/17 17:29:17;;;;;;;14.90;13.73;;;;;;;;;;5036395;28;20430;-86
2023/08/17 17:31:44;;;;;;;15.37;13.90;;;;;;;;;;5037831;28;20429;-89
2023/08/17 17:34:10;;;;;;;17.50;16.10;;;;;;;;;;5040555;28;20454;-89
2023/08/17 17:36:36;;;;;;;15.77;14.63;;;;;;;;;;5036016;28;20461;-84
2023/08/17 17:39:05;;;;;;;15.67;14.17;;;;;;;;;;5041268;28;20429;-89
2023/08/17 17:41:31;;;;;;;15.00;14.00;;;;;;;;;;5044113;28;20464;-88
2023/08/17 17:43:57;;;;;;;15.87;14.77;;;;;;;;;;5045308;28;20464;-85
2023/08/17 17:46:23;;;;;;;16.40;14.97;;;;;;;;;;5031590;28;20434;-87
2023/08/17 17:48:49;;;;;;;15.20;14.07;;;;;;;;;;5044828;28;20433;-83
2023/08/17 17:51:15;;;;;;;16.40;15.10;;;;;;;;;;5038651;28;20558;-83
2023/08/17 17:53:41;;;;;;;17.53;15.97;;;;;;;;;;5053726;28;20453;-89
2023/08/17 17:56:12;;;;;;;15.73;14.57;;;;;;;;;;5036114;28;20437;-88
2023/08/17 17:58:38;;;;;;;15.07;13.87;;;;;;;;;;5044548;28;20731;-89
2023/08/17 18:01:04;;;;;;;14.33;13.00;;;;;;;;;;5037079;28;20438;-88
2023/08/17 18:03:30;;;;;;;16.00;14.50;;;;;;;;;;5035542;28;20441;-88
2023/08/17 18:05:56;;;;;;;15.57;14.40;;;;;;;;;;5045024;28;21021;-86
2023/08/17 18:08:22;;;;;;;16.00;14.53;;;;;;;;;;5047307;28;20490;-87
2023/08/17 18:10:48;;;;;;;15.60;14.40;;;;;;;;;;5032897;28;20429;-90
2023/08/17 18:13:14;;;;;;;16.33;15.10;;;;;;;;;;5044791;28;20971;-86
2023/08/17 18:15:41;;;;;;;16.00;14.47;;;;;;;;;;5045622;28;20567;-89
2023/08/17 18:18:07;;;;;;;14.27;13.17;;;;;;;;;;5033485;28;20941;-83
2023/08/17 18:20:33;;;;;;;13.90;12.90;;;;;;;;;;5021801;28;20464;-83
2023/08/17 18:22:59;;;;;;;15.23;14.03;;;;;;;;;;5042745;28;20456;-83
2023/08/17 18:25:26;;;;;;;15.13;14.00;;;;;;;;;;5037836;28;20564;-82
2023/08/17 18:27:52;;;;;;;16.63;15.17;;;;;;;;;;5033125;28;20433;-81
2023/08/17 18:30:18;;;;;;;15.13;13.93;;;;;;;;;;5015924;28;20629;-83
2023/08/17 18:32:44;;;;;;;15.20;14.10;;;;;;;;;;5042892;28;20528;-82
2023/08/17 18:35:10;;;;;;;15.83;14.63;;;;;;;;;;5036498;28;20934;-83
2023/08/17 18:37:36;;;;;;;39.87;36.37;;;;;;;;;;5045491;28;20519;-83
2023/08/17 18:40:03;;;;;;;15.47;14.27;;;;;;;;;;5035440;28;20564;-82
2023/08/17 18:42:29;;;;;;;16.47;15.20;;;;;;;;;;5051023;28;20433;-83
2023/08/17 18:44:55;;;;;;;15.87;14.87;;;;;;;;;;5041557;28;20422;-81
2023/08/17 18:47:22;;;;;;;18.40;17.10;;;;;;;;;;5038784;28;20460;-82
2023/08/17 18:49:50;;;;;;;18.40;16.70;;;;;;;;;;5028981;28;20449;-80
2023/08/17 18:52:20;;;;;;;17.70;16.30;;;;;;;;;;5042648;28;20422;-82
2023/08/17 18:55:02;;;;;;;17.60;16.30;;;;;;;;;;5033936;28;20569;-85
2023/08/17 18:57:28;;;;;;;18.70;16.93;;;;;;;;;;5020173;28;20446;-87
2023/08/17 18:59:54;;;;;;;18.83;17.43;;;;;;;;;;5046234;28;20671;-80
2023/08/17 19:02:21;;;;;;;20.60;18.97;;;;;;;;;;5040497;28;20803;-82
2023/08/17 19:04:47;;;;;;;19.50;17.70;;;;;;;;;;5036984;28;20437;-80
2023/08/17 19:07:16;;;;;;;20.43;18.53;;;;;;;;;;5046088;28;20429;-81
2023/08/17 19:09:44;;;;;;;20.10;18.40;;;;;;;;;;5042018;28;20576;-80
2023/08/17 19:12:10;;;;;;;21.27;19.57;;;;;;;;;;5046929;28;20421;-81
2023/08/17 19:14:36;;;;;;;20.00;18.37;;;;;;;;;;5015937;28;20485;-80
2023/08/17 19:17:02;;;;;;;20.60;18.80;;;;;;;;;;5041734;28;20457;-79
2023/08/17 19:19:30;;;;;;;20.67;19.07;;;;;;;;;;5040082;28;20442;-81
2023/08/17 19:21:56;;;;;;;22.20;20.10;;;;;;;;;;5042601;28;20434;-81
2023/08/17 19:24:22;;;;;;;20.23;18.27;;;;;;;;;;5029765;28;20960;-83
2023/08/17 19:26:48;;;;;;;21.10;19.50;;;;;;;;;;5019068;28;20758;-80
2023/08/17 19:29:14;;;;;;;21.20;19.43;;;;;;;;;;5038933;28;20465;-81
2023/08/17 19:31:40;;;;;;;19.80;18.30;;;;;;;;;;5025499;28;20442;-81
2023/08/17 19:34:06;;;;;;;22.20;20.43;;;;;;;;;;5039309;28;20483;-78
2023/08/17 19:36:34;;;;;;;20.20;18.53;;;;;;;;;;5037403;28;20837;-85
2023/08/17 19:39:00;;;;;;;21.77;20.07;;;;;;;;;;5041692;28;20446;-82
2023/08/17 19:41:26;;;;;;;20.73;18.77;;;;;;;;;;5047953;28;20456;-82
2023/08/17 19:43:52;;;;;;;19.70;18.07;;;;;;;;;;5043801;28;20447;-84
2023/08/17 19:46:17;;;;;;;20.17;18.37;;;;;;;;;;5046528;28;20430;-83
2023/08/17 19:48:43;;;;;;;21.43;19.30;;;;;;;;;;5033228;28;20476;-83
2023/08/17 19:51:09;;;;;;;19.93;18.10;;;;;;;;;;5046029;28;20670;-82
2023/08/17 19:53:35;;;;;;;21.93;20.00;;;;;;;;;;5041806;28;20473;-83
2023/08/17 19:56:02;;;;;;;22.77;20.90;;;;;;;;;;5023846;28;20438;-82
2023/08/17 19:58:28;;;;;;;24.43;22.37;;;;;;;;;;5031578;28;20830;-83
2023/08/17 20:00:54;;;;;;;21.93;20.13;;;;;;;;;;5033003;28;20438;-81
2023/08/17 20:03:20;;;;;;;23.10;21.20;;;;;;;;;;5045171;28;20667;-82
2023/08/17 20:05:47;;;;;;;24.10;22.20;;;;;;;;;;5035860;28;20995;-81
2023/08/17 20:08:13;;;;;;;23.03;21.10;;;;;;;;;;5033089;28;20438;-83
2023/08/17 20:10:39;;;;;;;25.40;23.30;;;;;;;;;;5037057;28;20500;-81
2023/08/17 20:13:06;;;;;;;25.77;23.57;;;;;;;;;;5044160;28;20469;-82
2023/08/17 20:15:32;;;;;;;25.63;23.63;;;;;;;;;;5038096;28;20456;-81
2023/08/17 20:17:58;;;;;;;24.40;22.50;;;;;;;;;;5049599;28;20418;-82
2023/08/17 20:20:24;;;;;;;26.30;24.00;;;;;;;;;;5038159;28;20441;-83
2023/08/17 20:22:51;;;;;;;24.20;22.30;;;;;;;;;;5043725;28;20422;-82
2023/08/17 20:25:17;;;;;;;25.80;23.70;;;;;;;;;;5029059;28;20426;-81
2023/08/17 20:27:43;;;;;;;26.80;24.20;;;;;;;;;;5044102;28;20484;-81
2023/08/17 20:30:09;;;;;;;27.30;24.77;;;;;;;;;;5033449;28;20435;-79
2023/08/17 20:32:35;;;;;;;26.37;24.23;;;;;;;;;;5048217;28;20429;-81
2023/08/17 20:35:03;;;;;;;25.87;23.80;;;;;;;;;;5049369;28;20515;-81
2023/08/17 20:37:29;;;;;;;27.23;24.80;;;;;;;;;;5029523;28;20924;-81
2023/08/17 20:39:55;;;;;;;27.67;25.33;;;;;;;;;;5024789;28;21022;-82
2023/08/17 20:42:21;;;;;;;29.27;26.27;;;;;;;;;;5028140;28;20543;-81
2023/08/17 20:44:47;;;;;;;28.70;26.17;;;;;;;;;;5033872;28;20729;-81
2023/08/17 20:47:13;;;;;;;26.20;23.90;;;;;;;;;;5045022;28;20429;-81
2023/08/17 20:49:40;;;;;;;27.93;25.53;;;;;;;;;;5044374;28;20426;-81
2023/08/17 20:52:07;;;;;;;26.40;24.17;;;;;;;;;;5045153;28;20430;-82
2023/08/17 20:54:33;;;;;;;30.00;27.03;;;;;;;;;;5041137;28;20498;-82
2023/08/17 20:56:59;;;;;;;31.10;28.03;;;;;;;;;;5035087;28;20470;-82
2023/08/17 20:59:26;;;;;;;31.17;27.93;;;;;;;;;;5043726;28;20616;-82
2023/08/17 21:01:51;;;;;;;32.03;28.97;;;;;;;;;;5036742;28;20935;-83
2023/08/17 21:04:18;;;;;;;29.33;26.53;;;;;;;;;;5038991;28;20736;-81
2023/08/17 21:06:43;;;;;;;30.00;27.50;;;;;;;;;;5037431;28;20510;-83
2023/08/17 21:09:10;;;;;;;30.53;27.60;;;;;;;;;;5027144;28;20529;-83
2023/08/17 21:11:39;;;;;;;28.20;25.37;;;;;;;;;;5035553;28;20479;-81
2023/08/17 21:14:05;;;;;;;29.90;26.93;;;;;;;;;;5034987;28;20489;-81
2023/08/17 21:16:31;;;;;;;30.20;27.10;;;;;;;;;;5036946;28;20830;-82
2023/08/17 21:19:00;;;;;;;32.00;28.87;;;;;;;;;;5034491;28;20411;-82
2023/08/17 21:21:27;;;;;;;30.83;27.97;;;;;;;;;;5035006;28;20940;-82
2023/08/17 21:23:53;;;;;;;30.93;28.00;;;;;;;;;;5033823;28;20429;-83
2023/08/17 21:26:19;;;;;;;30.17;27.40;;;;;;;;;;5035331;28;20508;-82
2023/08/17 21:28:45;;;;;;;29.83;27.07;;;;;;;;;;5046371;28;20424;-81
2023/08/17 21:31:10;;;;;;;28.60;26.07;;;;;;;;;;5045437;28;20419;-82
2023/08/17 21:33:37;;;;;;;29.27;26.53;;;;;;;;;;5035911;28;20531;-82
2023/08/17 21:36:03;;;;;;;27.57;24.53;;;;;;;;;;5038642;28;20422;-83
2023/08/17 21:38:29;;;;;;;28.27;25.53;;;;;;;;;;5032214;28;20441;-81
2023/08/17 21:41:02;;;;;;;28.93;26.33;;;;;;;;;;5033411;28;20783;-80
2023/08/17 21:43:29;;;;;;;26.27;23.93;;;;;;;;;;5017482;28;20489;-83
2023/08/17 21:45:55;;;;;;;25.87;23.50;;;;;;;;;;5017632;28;20438;-82
2023/08/17 21:48:21;;;;;;;26.67;24.47;;;;;;;;;;5037587;28;20914;-82
2023/08/17 21:50:47;;;;;;;24.47;22.40;;;;;;;;;;5030965;28;20781;-82
2023/08/17 21:53:20;;;;;;;25.77;23.37;;;;;;;;;;5034887;28;20518;-82
2023/08/17 21:55:50;;;;;;;25.77;23.17;;;;;;;;;;5037489;28;20454;-82
2023/08/17 21:58:17;;;;;;;25.57;22.87;;;;;;;;;;5025414;28;20439;-81
2023/08/17 22:00:43;;;;;;;25.00;22.07;;;;;;;;;;5043742;28;20448;-81
2023/08/17 22:03:10;;;;;;;24.20;21.90;;;;;;;;;;5043912;28;20856;-81
2023/08/17 22:05:37;;;;;;;22.47;20.37;;;;;;;;;;5042902;28;20433;-82
2023/08/17 22:08:04;;;;;;;22.67;20.83;;;;;;;;;;5041119;28;20481;-82
2023/08/17 22:10:30;;;;;;;23.10;20.80;;;;;;;;;;5043922;28;20966;-82
2023/08/17 22:12:56;;;;;;;23.67;21.57;;;;;;;;;;5043042;28;20959;-82
2023/08/17 22:15:22;;;;;;;21.83;19.53;;;;;;;;;;5043725;28;20457;-82
2023/08/17 22:17:48;;;;;;;22.23;20.33;;;;;;;;;;5043970;28;20782;-83
2023/08/17 22:20:14;;;;;;;20.87;19.00;;;;;;;;;;5038670;28;20946;-82
2023/08/17 22:22:40;;;;;;;21.60;19.60;;;;;;;;;;5043916;28;20433;-82
2023/08/17 22:25:06;;;;;;;20.60;18.60;;;;;;;;;;5043318;28;20429;-82
2023/08/17 22:27:32;;;;;;;20.00;18.00;;;;;;;;;;5043325;28;20433;-82
2023/08/17 22:29:58;;;;;;;21.10;19.30;;;;;;;;;;5043164;28;20486;-81
2023/08/17 22:32:24;;;;;;;20.00;18.30;;;;;;;;;;5043234;28;20904;-84
2023/08/17 22:34:50;;;;;;;19.73;17.77;;;;;;;;;;5025450;28;20552;-82
2023/08/17 22:37:17;;;;;;;20.33;18.63;;;;;;;;;;5042743;28;20984;-81
2023/08/17 22:39:43;;;;;;;20.23;18.13;;;;;;;;;;5043472;28;20438;-82
2023/08/17 22:42:09;;;;;;;20.27;18.13;;;;;;;;;;5043028;28;20457;-81
2023/08/17 22:44:35;;;;;;;20.37;18.57;;;;;;;;;;5043198;28;20767;-82
2023/08/17 22:47:01;;;;;;;20.40;18.40;;;;;;;;;;5043532;28;20429;-81
2023/08/17 22:49:28;;;;;;;18.40;16.90;;;;;;;;;;5038296;28;20472;-82
2023/08/17 22:51:54;;;;;;;17.47;15.73;;;;;;;;;;5043290;28;20785;-82
2023/08/17 22:54:20;;;;;;;18.73;17.07;;;;;;;;;;5024910;28;20449;-81
2023/08/17 22:56:46;;;;;;;17.90;16.30;;;;;;;;;;5043031;28;20483;-81
2023/08/17 22:59:12;;;;;;;17.90;16.17;;;;;;;;;;5043191;28;20453;-81
2023/08/17 23:01:38;;;;;;;18.07;16.50;;;;;;;;;;5043244;28;20824;-82
2023/08/17 23:04:04;;;;;;;18.03;16.53;;;;;;;;;;5042810;28;20425;-81
2023/08/17 23:06:30;;;;;;;18.40;16.63;;;;;;;;;;5043161;28;20465;-81
2023/08/17 23:08:56;;;;;;;18.00;15.97;;;;;;;;;;5040495;28;20457;-82
2023/08/17 23:11:22;;;;;;;18.17;16.53;;;;;;;;;;5043003;28;20495;-81
2023/08/17 23:13:48;;;;;;;17.90;16.33;;;;;;;;;;5042961;28;20722;-81
2023/08/17 23:16:14;;;;;;;18.27;15.10;;;;;;;;;;5038053;28;20548;-81
2023/08/17 23:18:40;;;;;;;16.87;15.47;;;;;;;;;;5043352;28;21003;-81
2023/08/17 23:21:06;;;;;;;17.53;15.87;;;;;;;;;;5046433;28;20862;-82
2023/08/17 23:23:32;;;;;;;17.97;16.37;;;;;;;;;;5054805;28;20430;-82
2023/08/17 23:25:59;;;;;;;19.37;17.47;;;;;;;;;;5060854;28;20436;-81
2023/08/17 23:28:25;;;;;;;18.87;17.23;;;;;;;;;;5047868;28;20429;-80
2023/08/17 23:30:51;;;;;;;18.20;16.60;;;;;;;;;;5041037;28;20422;-80
2023/08/17 23:33:17;;;;;;;21.07;18.93;;;;;;;;;;5018675;28;20437;-81
2023/08/17 23:35:43;;;;;;;19.23;17.63;;;;;;;;;;5037482;28;20426;-81
2023/08/17 23:38:10;;;;;;;20.10;18.10;;;;;;;;;;5038419;28;20465;-81
2023/08/17 23:40:36;;;;;;;21.50;19.27;;;;;;;;;;5019845;28;20527;-81
2023/08/17 23:43:02;;;;;;;19.33;17.50;;;;;;;;;;5037454;28;20434;-82
2023/08/17 23:45:28;;;;;;;19.93;17.90;;;;;;;;;;5037525;28;20438;-82
2023/08/17 23:47:54;;;;;;;19.93;18.13;;;;;;;;;;5037139;28;20445;-83
2023/08/17 23:50:20;;;;;;;20.10;18.27;;;;;;;;;;5037170;28;21067;-82
2023/08/17 23:52:46;;;;;;;18.50;16.57;;;;;;;;;;5037398;28;20434;-82
2023/08/17 23:55:12;;;;;;;18.57;16.67;;;;;;;;;;5034376;28;20459;-80
2023/08/17 23:57:38;;;;;;;19.30;17.70;;;;;;;;;;5037509;28;20415;-80
